SKU315 SCAR-SCEL
Flight info
| Callsign | SKU315 |
|---|---|
| Flight time | 2h 9m |
| Altitude | 37000 |
| Route | LOBAG5L LOBAG UQ803 SIMOK SIMOK7B |
| Aircraft | A21N/M-SDE2E3FGHIRWXY/LB1 |
Departure
| Time | 2026-04-25 14:48 |
|---|---|
| Airport | Chacalluta International Airport (SCAR) |
Arrival
| Time | 2026-04-25 16:57 |
|---|---|
| Airport | Comodoro Arturo Merino Benítez International Airport (SCEL) |
| Time | Latitude | Longitude | Altitude | Speed | Heading |
|---|---|---|---|---|---|
| 2026-04-25 14:35 | -18.34919 | -70.33639 | 200 ft | 0 kts | 109° |
| 2026-04-25 14:39 | -18.34914 | -70.33652 | 200 ft | 3 kts | 109° |
| 2026-04-25 14:39 | -18.34906 | -70.33676 | 199 ft | 3 kts | 110° |
| 2026-04-25 14:39 | -18.34901 | -70.33699 | 199 ft | 3 kts | 73° |
| 2026-04-25 14:39 | -18.34914 | -70.33715 | 203 ft | 4 kts | 27° |
| 2026-04-25 14:40 | -18.34929 | -70.33722 | 203 ft | 1 kts | 20° |
| 2026-04-25 14:40 | -18.34932 | -70.33723 | 203 ft | 0 kts | 20° |
| 2026-04-25 14:43 | -18.34930 | -70.33723 | 203 ft | 1 kts | 20° |
| 2026-04-25 14:44 | -18.34912 | -70.33716 | 203 ft | 4 kts | 20° |
| 2026-04-25 14:44 | -18.34872 | -70.33701 | 189 ft | 7 kts | 19° |
| 2026-04-25 14:44 | -18.34817 | -70.33681 | 185 ft | 10 kts | 19° |
| 2026-04-25 14:44 | -18.34747 | -70.33656 | 187 ft | 12 kts | 18° |
| 2026-04-25 14:45 | -18.34662 | -70.33626 | 186 ft | 14 kts | 19° |
| 2026-04-25 14:45 | -18.34558 | -70.33588 | 197 ft | 17 kts | 19° |
| 2026-04-25 14:45 | -18.34437 | -70.33543 | 193 ft | 19 kts | 19° |
| 2026-04-25 14:45 | -18.34318 | -70.33498 | 196 ft | 16 kts | 19° |
| 2026-04-25 14:46 | -18.34203 | -70.33455 | 209 ft | 19 kts | 19° |
| 2026-04-25 14:46 | -18.34091 | -70.33414 | 206 ft | 14 kts | 18° |
| 2026-04-25 14:46 | -18.33992 | -70.33428 | 205 ft | 16 kts | 313° |
| 2026-04-25 14:46 | -18.33955 | -70.33505 | 211 ft | 7 kts | 288° |
| 2026-04-25 14:47 | -18.33970 | -70.33552 | 218 ft | 9 kts | 206° |
| 2026-04-25 14:47 | -18.33985 | -70.33558 | 205 ft | 0 kts | 198° |
| 2026-04-25 14:47 | -18.34191 | -70.33632 | 199 ft | 83 kts | 201° |
| 2026-04-25 14:47 | -18.35054 | -70.33954 | 216 ft | 170 kts | 201° |
| 2026-04-25 14:48 | -18.36262 | -70.34395 | 931 ft | 191 kts | 198° |
| 2026-04-25 14:48 | -18.37613 | -70.34503 | 1832 ft | 207 kts | 175° |
| 2026-04-25 14:48 | -18.39121 | -70.34343 | 2440 ft | 232 kts | 175° |
| 2026-04-25 14:48 | -18.40815 | -70.34193 | 3007 ft | 256 kts | 175° |
| 2026-04-25 14:49 | -18.42627 | -70.34043 | 3877 ft | 264 kts | 175° |
| 2026-04-25 14:49 | -18.44476 | -70.33893 | 4865 ft | 268 kts | 175° |
| 2026-04-25 14:49 | -18.46346 | -70.33742 | 5789 ft | 271 kts | 175° |
| 2026-04-25 14:49 | -18.48241 | -70.33592 | 6666 ft | 275 kts | 175° |
| 2026-04-25 14:50 | -18.50162 | -70.33440 | 7467 ft | 279 kts | 175° |
| 2026-04-25 14:50 | -18.52111 | -70.33287 | 8288 ft | 283 kts | 175° |
| 2026-04-25 14:50 | -18.54093 | -70.33132 | 9064 ft | 288 kts | 175° |
| 2026-04-25 14:50 | -18.56110 | -70.32974 | 9852 ft | 293 kts | 175° |
| 2026-04-25 14:51 | -18.58188 | -70.32808 | 10359 ft | 308 kts | 175° |
| 2026-04-25 14:51 | -18.60362 | -70.32546 | 10661 ft | 329 kts | 172° |
| 2026-04-25 14:51 | -18.62698 | -70.32214 | 10927 ft | 349 kts | 172° |
| 2026-04-25 14:51 | -18.65178 | -70.31857 | 11180 ft | 369 kts | 172° |
| 2026-04-25 14:52 | -18.67776 | -70.31486 | 11455 ft | 385 kts | 172° |
| 2026-04-25 14:52 | -18.70461 | -70.31105 | 11979 ft | 391 kts | 172° |
| 2026-04-25 14:52 | -18.73171 | -70.30723 | 12595 ft | 395 kts | 172° |
| 2026-04-25 14:52 | -18.74978 | -70.30467 | 12992 ft | 397 kts | 172° |
| 2026-04-25 14:53 | -18.78670 | -70.29943 | 13775 ft | 402 kts | 172° |
| 2026-04-25 14:53 | -18.81459 | -70.29548 | 14284 ft | 406 kts | 172° |
| 2026-04-25 14:53 | -18.84265 | -70.29149 | 14795 ft | 409 kts | 172° |
| 2026-04-25 14:53 | -18.87100 | -70.28747 | 15261 ft | 413 kts | 172° |
| 2026-04-25 14:54 | -18.89959 | -70.28341 | 15754 ft | 416 kts | 172° |
| 2026-04-25 14:54 | -18.92841 | -70.27931 | 16253 ft | 419 kts | 172° |
| 2026-04-25 14:54 | -18.95741 | -70.27519 | 16722 ft | 422 kts | 172° |
| 2026-04-25 14:54 | -18.98666 | -70.27102 | 17184 ft | 426 kts | 172° |
| 2026-04-25 14:55 | -19.01617 | -70.26686 | 17644 ft | 429 kts | 173° |
| 2026-04-25 14:55 | -19.04549 | -70.26299 | 18107 ft | 432 kts | 173° |
| 2026-04-25 14:55 | -19.07549 | -70.25911 | 18554 ft | 435 kts | 173° |
| 2026-04-25 14:55 | -19.10564 | -70.25521 | 18983 ft | 437 kts | 173° |
| 2026-04-25 14:56 | -19.13591 | -70.25124 | 19402 ft | 439 kts | 173° |
| 2026-04-25 14:56 | -19.16636 | -70.24724 | 19810 ft | 442 kts | 173° |
| 2026-04-25 14:56 | -19.19703 | -70.24321 | 20223 ft | 445 kts | 173° |
| 2026-04-25 14:56 | -19.22785 | -70.23917 | 20651 ft | 448 kts | 173° |
| 2026-04-25 14:57 | -19.25888 | -70.23508 | 21122 ft | 450 kts | 173° |
| 2026-04-25 14:57 | -19.29001 | -70.23098 | 21572 ft | 452 kts | 173° |
| 2026-04-25 14:57 | -19.32135 | -70.22685 | 22033 ft | 455 kts | 173° |
| 2026-04-25 14:57 | -19.35287 | -70.22271 | 22489 ft | 458 kts | 173° |
| 2026-04-25 14:58 | -19.38460 | -70.21852 | 22886 ft | 462 kts | 173° |
| 2026-04-25 14:58 | -19.41670 | -70.21435 | 23285 ft | 465 kts | 173° |
| 2026-04-25 14:58 | -19.44909 | -70.21268 | 23655 ft | 468 kts | 179° |
| 2026-04-25 14:58 | -19.48135 | -70.21270 | 23948 ft | 471 kts | 180° |
| 2026-04-25 14:59 | -19.51430 | -70.21284 | 24274 ft | 473 kts | 180° |
| 2026-04-25 14:59 | -19.54731 | -70.21302 | 24608 ft | 475 kts | 180° |
| 2026-04-25 14:59 | -19.58054 | -70.21317 | 24924 ft | 478 kts | 180° |
| 2026-04-25 14:59 | -19.61383 | -70.21330 | 25251 ft | 480 kts | 180° |
| 2026-04-25 15:00 | -19.64729 | -70.21343 | 25562 ft | 482 kts | 180° |
| 2026-04-25 15:00 | -19.68088 | -70.21354 | 25841 ft | 484 kts | 181° |
| 2026-04-25 15:00 | -19.71466 | -70.21365 | 26134 ft | 486 kts | 180° |
| 2026-04-25 15:00 | -19.74855 | -70.21376 | 26420 ft | 487 kts | 181° |
| 2026-04-25 15:01 | -19.78247 | -70.21389 | 26796 ft | 487 kts | 181° |
| 2026-04-25 15:01 | -19.81584 | -70.21402 | 27213 ft | 485 kts | 181° |
| 2026-04-25 15:01 | -19.84953 | -70.21412 | 27618 ft | 483 kts | 181° |
| 2026-04-25 15:01 | -19.88316 | -70.21426 | 28010 ft | 482 kts | 181° |
| 2026-04-25 15:02 | -19.91667 | -70.21440 | 28405 ft | 481 kts | 181° |
| 2026-04-25 15:02 | -19.95016 | -70.21453 | 28803 ft | 480 kts | 181° |
| 2026-04-25 15:02 | -19.98356 | -70.21465 | 29202 ft | 479 kts | 181° |
| 2026-04-25 15:02 | -20.01695 | -70.21476 | 29602 ft | 479 kts | 181° |
| 2026-04-25 15:03 | -20.05026 | -70.21488 | 29983 ft | 479 kts | 181° |
| 2026-04-25 15:03 | -20.08369 | -70.21501 | 30362 ft | 478 kts | 181° |
| 2026-04-25 15:03 | -20.11685 | -70.21512 | 30748 ft | 476 kts | 181° |
| 2026-04-25 15:03 | -20.14988 | -70.21523 | 31144 ft | 474 kts | 182° |
| 2026-04-25 15:04 | -20.18276 | -70.21536 | 31545 ft | 472 kts | 182° |
| 2026-04-25 15:04 | -20.21513 | -70.21547 | 31936 ft | 470 kts | 182° |
| 2026-04-25 15:04 | -20.24773 | -70.21557 | 32344 ft | 468 kts | 182° |
| 2026-04-25 15:04 | -20.28026 | -70.21569 | 32755 ft | 466 kts | 182° |
| 2026-04-25 15:05 | -20.31259 | -70.21581 | 33166 ft | 464 kts | 182° |
| 2026-04-25 15:05 | -20.34481 | -70.21592 | 33557 ft | 462 kts | 182° |
| 2026-04-25 15:05 | -20.37697 | -70.21603 | 33941 ft | 461 kts | 182° |
| 2026-04-25 15:06 | -20.44094 | -70.21627 | 34514 ft | 459 kts | 183° |
| 2026-04-25 15:06 | -20.47290 | -70.21640 | 34783 ft | 459 kts | 183° |
| 2026-04-25 15:06 | -20.50488 | -70.21652 | 35012 ft | 460 kts | 182° |
| 2026-04-25 15:06 | -20.53693 | -70.21664 | 35255 ft | 460 kts | 183° |
| 2026-04-25 15:07 | -20.56901 | -70.21675 | 35483 ft | 460 kts | 183° |
| 2026-04-25 15:07 | -20.60101 | -70.21686 | 35712 ft | 460 kts | 182° |
| 2026-04-25 15:07 | -20.63305 | -70.21696 | 35946 ft | 460 kts | 183° |
| 2026-04-25 15:07 | -20.66516 | -70.21707 | 36135 ft | 461 kts | 183° |
| 2026-04-25 15:08 | -20.69688 | -70.21719 | 36338 ft | 461 kts | 183° |
| 2026-04-25 15:08 | -20.72914 | -70.21731 | 36550 ft | 462 kts | 183° |
| 2026-04-25 15:08 | -20.76125 | -70.21745 | 36761 ft | 462 kts | 183° |
| 2026-04-25 15:08 | -20.79341 | -70.21756 | 36969 ft | 462 kts | 183° |
| 2026-04-25 15:09 | -20.82563 | -70.21767 | 37114 ft | 463 kts | 183° |
| 2026-04-25 15:09 | -20.92221 | -70.21801 | 37106 ft | 462 kts | 183° |
| 2026-04-25 15:10 | -20.98617 | -70.21825 | 37096 ft | 462 kts | 183° |
| 2026-04-25 15:11 | -21.08286 | -70.21858 | 37098 ft | 462 kts | 183° |
| 2026-04-25 15:11 | -21.14683 | -70.21877 | 37098 ft | 462 kts | 183° |
| 2026-04-25 15:12 | -21.24342 | -70.21911 | 37096 ft | 462 kts | 183° |
| 2026-04-25 15:12 | -21.28606 | -70.21925 | 37098 ft | 463 kts | 183° |
| 2026-04-25 15:13 | -21.40444 | -70.21965 | 37097 ft | 464 kts | 184° |
| 2026-04-25 15:14 | -21.46869 | -70.21986 | 37091 ft | 464 kts | 184° |
| 2026-04-25 15:14 | -21.53352 | -70.22008 | 37090 ft | 464 kts | 184° |
| 2026-04-25 15:15 | -21.59784 | -70.22031 | 37087 ft | 465 kts | 184° |
| 2026-04-25 15:15 | -21.66257 | -70.22052 | 37083 ft | 465 kts | 184° |
| 2026-04-25 15:16 | -21.72744 | -70.22074 | 37097 ft | 465 kts | 184° |
| 2026-04-25 15:16 | -21.82432 | -70.22106 | 37084 ft | 465 kts | 184° |
| 2026-04-25 15:17 | -21.92086 | -70.22479 | 37086 ft | 461 kts | 192° |
| 2026-04-25 15:18 | -21.97372 | -70.23342 | 37078 ft | 461 kts | 193° |
| 2026-04-25 15:18 | -22.06888 | -70.24874 | 37077 ft | 461 kts | 192° |
| 2026-04-25 15:19 | -22.12173 | -70.25703 | 37076 ft | 461 kts | 192° |
| 2026-04-25 15:19 | -22.19588 | -70.26879 | 37084 ft | 461 kts | 193° |
| 2026-04-25 15:20 | -22.25923 | -70.27878 | 37069 ft | 461 kts | 193° |
| 2026-04-25 15:20 | -22.32295 | -70.28881 | 37071 ft | 461 kts | 193° |
| 2026-04-25 15:21 | -22.38624 | -70.29881 | 37069 ft | 461 kts | 193° |
| 2026-04-25 15:21 | -22.44992 | -70.30888 | 37069 ft | 461 kts | 193° |
| 2026-04-25 15:22 | -22.51357 | -70.31893 | 37076 ft | 461 kts | 193° |
| 2026-04-25 15:22 | -22.57680 | -70.32891 | 37066 ft | 462 kts | 193° |
| 2026-04-25 15:23 | -22.64073 | -70.33903 | 37072 ft | 462 kts | 193° |
| 2026-04-25 15:23 | -22.70413 | -70.34909 | 37073 ft | 462 kts | 193° |
| 2026-04-25 15:24 | -22.76793 | -70.35921 | 37074 ft | 462 kts | 193° |
| 2026-04-25 15:24 | -22.82079 | -70.36757 | 37087 ft | 462 kts | 194° |
| 2026-04-25 15:25 | -22.89499 | -70.37791 | 37073 ft | 465 kts | 187° |
| 2026-04-25 15:25 | -22.96011 | -70.37866 | 37071 ft | 467 kts | 185° |
| 2026-04-25 15:26 | -23.02482 | -70.37902 | 37064 ft | 467 kts | 185° |
| 2026-04-25 15:26 | -23.08988 | -70.37949 | 37065 ft | 467 kts | 186° |
| 2026-04-25 15:27 | -23.15496 | -70.37999 | 37074 ft | 466 kts | 186° |
| 2026-04-25 15:28 | -23.25195 | -70.38075 | 37076 ft | 466 kts | 186° |
| 2026-04-25 15:28 | -23.31696 | -70.38123 | 37082 ft | 466 kts | 186° |
| 2026-04-25 15:29 | -23.38162 | -70.38171 | 37085 ft | 466 kts | 186° |
| 2026-04-25 15:29 | -23.44658 | -70.38221 | 37099 ft | 465 kts | 187° |
| 2026-04-25 15:30 | -23.51098 | -70.38272 | 37083 ft | 464 kts | 187° |
| 2026-04-25 15:30 | -23.57573 | -70.38325 | 37077 ft | 464 kts | 187° |
| 2026-04-25 15:31 | -23.64043 | -70.38376 | 37079 ft | 464 kts | 187° |
| 2026-04-25 15:31 | -23.70500 | -70.38428 | 37064 ft | 464 kts | 187° |
| 2026-04-25 15:32 | -23.76938 | -70.38476 | 37061 ft | 463 kts | 187° |
| 2026-04-25 15:32 | -23.83401 | -70.38378 | 37060 ft | 465 kts | 185° |
| 2026-04-25 15:33 | -23.93122 | -70.38056 | 37056 ft | 465 kts | 185° |
| 2026-04-25 15:33 | -23.99563 | -70.37839 | 37059 ft | 465 kts | 185° |
| 2026-04-25 15:34 | -24.06055 | -70.37625 | 37055 ft | 465 kts | 185° |
| 2026-04-25 15:34 | -24.11442 | -70.37446 | 37053 ft | 465 kts | 185° |
| 2026-04-25 15:35 | -24.22198 | -70.37085 | 37059 ft | 465 kts | 185° |
| 2026-04-25 15:36 | -24.31882 | -70.36762 | 37054 ft | 465 kts | 185° |
| 2026-04-25 15:36 | -24.38344 | -70.36545 | 37063 ft | 464 kts | 186° |
| 2026-04-25 15:37 | -24.44805 | -70.36329 | 37052 ft | 464 kts | 186° |
| 2026-04-25 15:37 | -24.51283 | -70.36107 | 37052 ft | 464 kts | 186° |
| 2026-04-25 15:38 | -24.57707 | -70.35889 | 37055 ft | 464 kts | 186° |
| 2026-04-25 15:38 | -24.64162 | -70.35673 | 37076 ft | 465 kts | 186° |
| 2026-04-25 15:39 | -24.70651 | -70.35456 | 37064 ft | 465 kts | 186° |
| 2026-04-25 15:39 | -24.77083 | -70.35239 | 37057 ft | 465 kts | 186° |
| 2026-04-25 15:40 | -24.81418 | -70.35093 | 37066 ft | 465 kts | 186° |
| 2026-04-25 15:40 | -24.90013 | -70.34804 | 37069 ft | 465 kts | 186° |
| 2026-04-25 15:41 | -24.96489 | -70.34588 | 37079 ft | 465 kts | 186° |
| 2026-04-25 15:41 | -25.02947 | -70.34372 | 37068 ft | 466 kts | 186° |
| 2026-04-25 15:42 | -25.09448 | -70.34152 | 37077 ft | 466 kts | 186° |
| 2026-04-25 15:42 | -25.15941 | -70.33933 | 37082 ft | 465 kts | 186° |
| 2026-04-25 15:43 | -25.22378 | -70.33717 | 37101 ft | 465 kts | 187° |
| 2026-04-25 15:43 | -25.28853 | -70.33499 | 37063 ft | 465 kts | 187° |
| 2026-04-25 15:44 | -25.35323 | -70.33281 | 37068 ft | 465 kts | 187° |
| 2026-04-25 15:44 | -25.41806 | -70.33063 | 37069 ft | 465 kts | 187° |
| 2026-04-25 15:45 | -25.48233 | -70.32845 | 37066 ft | 464 kts | 187° |
| 2026-04-25 15:45 | -25.52538 | -70.32699 | 37083 ft | 464 kts | 187° |
| 2026-04-25 15:46 | -25.61137 | -70.32406 | 37064 ft | 463 kts | 187° |
| 2026-04-25 15:46 | -25.67596 | -70.32187 | 37070 ft | 463 kts | 187° |
| 2026-04-25 15:47 | -25.74013 | -70.31970 | 37065 ft | 463 kts | 187° |
| 2026-04-25 15:47 | -25.80467 | -70.31753 | 37098 ft | 463 kts | 187° |
| 2026-04-25 15:48 | -25.86874 | -70.31534 | 37070 ft | 462 kts | 187° |
| 2026-04-25 15:48 | -25.93281 | -70.31314 | 37066 ft | 461 kts | 187° |
| 2026-04-25 15:49 | -25.99710 | -70.31094 | 37065 ft | 461 kts | 187° |
| 2026-04-25 15:49 | -26.06147 | -70.30891 | 37058 ft | 460 kts | 189° |
| 2026-04-25 15:50 | -26.12430 | -70.31346 | 37078 ft | 451 kts | 195° |
| 2026-04-25 15:50 | -26.18694 | -70.31934 | 37067 ft | 451 kts | 195° |
| 2026-04-25 15:51 | -26.22845 | -70.32320 | 37063 ft | 451 kts | 195° |
| 2026-04-25 15:51 | -26.31198 | -70.33094 | 37059 ft | 451 kts | 195° |
| 2026-04-25 15:52 | -26.37436 | -70.33671 | 37071 ft | 452 kts | 194° |
| 2026-04-25 15:52 | -26.43694 | -70.34246 | 37080 ft | 449 kts | 195° |
| 2026-04-25 15:53 | -26.49890 | -70.34818 | 37072 ft | 449 kts | 195° |
| 2026-04-25 15:53 | -26.56136 | -70.35389 | 37068 ft | 449 kts | 195° |
| 2026-04-25 15:54 | -26.62384 | -70.35959 | 37068 ft | 450 kts | 195° |
| 2026-04-25 15:54 | -26.68598 | -70.36532 | 37088 ft | 449 kts | 195° |
| 2026-04-25 15:55 | -26.74817 | -70.37114 | 37060 ft | 447 kts | 195° |
| 2026-04-25 15:55 | -26.81012 | -70.37685 | 37060 ft | 447 kts | 195° |
| 2026-04-25 15:56 | -26.87233 | -70.38263 | 37060 ft | 447 kts | 196° |
| 2026-04-25 15:56 | -26.93412 | -70.38840 | 37059 ft | 448 kts | 195° |
| 2026-04-25 15:57 | -26.99633 | -70.39424 | 37063 ft | 448 kts | 195° |
| 2026-04-25 15:57 | -27.05826 | -70.40003 | 37053 ft | 448 kts | 195° |
| 2026-04-25 15:58 | -27.12043 | -70.40582 | 37057 ft | 448 kts | 196° |
| 2026-04-25 15:58 | -27.18272 | -70.41162 | 37049 ft | 447 kts | 195° |
| 2026-04-25 15:59 | -27.24457 | -70.41734 | 37065 ft | 447 kts | 196° |
| 2026-04-25 15:59 | -27.30639 | -70.42318 | 37076 ft | 447 kts | 196° |
| 2026-04-25 16:00 | -27.34795 | -70.42710 | 37064 ft | 448 kts | 197° |
| 2026-04-25 16:00 | -27.43079 | -70.43486 | 37069 ft | 448 kts | 196° |
| 2026-04-25 16:01 | -27.49269 | -70.44064 | 37068 ft | 447 kts | 196° |
| 2026-04-25 16:01 | -27.55478 | -70.44646 | 37095 ft | 446 kts | 197° |
| 2026-04-25 16:02 | -27.61639 | -70.45225 | 37076 ft | 445 kts | 197° |
| 2026-04-25 16:02 | -27.67831 | -70.45807 | 37072 ft | 445 kts | 197° |
| 2026-04-25 16:03 | -27.73985 | -70.46394 | 37070 ft | 445 kts | 197° |
| 2026-04-25 16:03 | -27.80178 | -70.46977 | 37073 ft | 445 kts | 197° |
| 2026-04-25 16:04 | -27.85322 | -70.47462 | 37108 ft | 443 kts | 198° |
| 2026-04-25 16:04 | -27.92420 | -70.48142 | 37084 ft | 441 kts | 198° |
| 2026-04-25 16:05 | -27.97522 | -70.48629 | 37083 ft | 441 kts | 198° |
| 2026-04-25 16:06 | -28.06683 | -70.49498 | 37079 ft | 441 kts | 197° |
| 2026-04-25 16:06 | -28.12795 | -70.50076 | 37113 ft | 440 kts | 198° |
| 2026-04-25 16:07 | -28.18909 | -70.50654 | 37079 ft | 439 kts | 198° |
| 2026-04-25 16:07 | -28.24978 | -70.51232 | 37074 ft | 439 kts | 198° |
| 2026-04-25 16:08 | -28.31076 | -70.51813 | 37069 ft | 439 kts | 198° |
| 2026-04-25 16:08 | -28.37178 | -70.52397 | 37076 ft | 439 kts | 198° |
| 2026-04-25 16:09 | -28.43243 | -70.52977 | 37089 ft | 438 kts | 199° |
| 2026-04-25 16:09 | -28.49303 | -70.53559 | 37075 ft | 439 kts | 199° |
| 2026-04-25 16:10 | -28.55411 | -70.54132 | 37054 ft | 440 kts | 198° |
| 2026-04-25 16:10 | -28.61475 | -70.54697 | 37068 ft | 439 kts | 199° |
| 2026-04-25 16:11 | -28.67587 | -70.55271 | 37109 ft | 439 kts | 199° |
| 2026-04-25 16:11 | -28.73612 | -70.55832 | 37069 ft | 434 kts | 199° |
| 2026-04-25 16:12 | -28.79668 | -70.56406 | 37063 ft | 436 kts | 200° |
| 2026-04-25 16:12 | -28.85776 | -70.56982 | 37078 ft | 439 kts | 199° |
| 2026-04-25 16:13 | -28.91819 | -70.57545 | 37098 ft | 436 kts | 199° |
| 2026-04-25 16:13 | -28.97871 | -70.58125 | 37126 ft | 433 kts | 200° |
| 2026-04-25 16:14 | -29.03835 | -70.58704 | 37093 ft | 433 kts | 200° |
| 2026-04-25 16:14 | -29.09850 | -70.59286 | 37107 ft | 430 kts | 200° |
| 2026-04-25 16:15 | -29.15796 | -70.59861 | 37111 ft | 430 kts | 200° |
| 2026-04-25 16:15 | -29.21786 | -70.60447 | 37126 ft | 432 kts | 200° |
| 2026-04-25 16:16 | -29.27738 | -70.61020 | 37108 ft | 426 kts | 200° |
| 2026-04-25 16:16 | -29.33629 | -70.61598 | 37104 ft | 426 kts | 200° |
| 2026-04-25 16:17 | -29.39526 | -70.62171 | 37095 ft | 426 kts | 201° |
| 2026-04-25 16:17 | -29.45444 | -70.62748 | 37107 ft | 426 kts | 200° |
| 2026-04-25 16:18 | -29.51361 | -70.63325 | 37106 ft | 426 kts | 200° |
| 2026-04-25 16:18 | -29.57211 | -70.63893 | 37103 ft | 423 kts | 200° |
| 2026-04-25 16:19 | -29.63087 | -70.64465 | 37097 ft | 422 kts | 200° |
| 2026-04-25 16:19 | -29.68894 | -70.65034 | 37098 ft | 421 kts | 201° |
| 2026-04-25 16:20 | -29.77670 | -70.65897 | 37090 ft | 422 kts | 201° |
| 2026-04-25 16:21 | -29.86426 | -70.66759 | 37080 ft | 421 kts | 201° |
| 2026-04-25 16:21 | -29.92287 | -70.67326 | 37084 ft | 422 kts | 201° |
| 2026-04-25 16:22 | -29.98118 | -70.67896 | 37089 ft | 423 kts | 201° |
| 2026-04-25 16:22 | -30.03983 | -70.68467 | 37088 ft | 423 kts | 200° |
| 2026-04-25 16:23 | -30.09856 | -70.69040 | 37112 ft | 422 kts | 201° |
| 2026-04-25 16:23 | -30.15684 | -70.69619 | 37079 ft | 422 kts | 201° |
| 2026-04-25 16:24 | -30.21515 | -70.70198 | 37080 ft | 423 kts | 201° |
| 2026-04-25 16:24 | -30.27388 | -70.70780 | 37065 ft | 422 kts | 200° |
| 2026-04-25 16:25 | -30.33268 | -70.71362 | 37093 ft | 422 kts | 201° |
| 2026-04-25 16:25 | -30.39077 | -70.71936 | 37118 ft | 420 kts | 201° |
| 2026-04-25 16:26 | -30.44920 | -70.72516 | 37102 ft | 421 kts | 201° |
| 2026-04-25 16:26 | -30.50726 | -70.73094 | 37109 ft | 421 kts | 201° |
| 2026-04-25 16:27 | -30.56597 | -70.73678 | 37092 ft | 421 kts | 201° |
| 2026-04-25 16:27 | -30.62421 | -70.74254 | 37140 ft | 421 kts | 201° |
| 2026-04-25 16:28 | -30.68259 | -70.74820 | 37058 ft | 421 kts | 201° |
| 2026-04-25 16:28 | -30.74108 | -70.75386 | 37064 ft | 420 kts | 201° |
| 2026-04-25 16:29 | -30.79899 | -70.75946 | 37069 ft | 419 kts | 201° |
| 2026-04-25 16:29 | -30.85742 | -70.76516 | 37071 ft | 420 kts | 201° |
| 2026-04-25 16:30 | -30.91530 | -70.77078 | 37109 ft | 417 kts | 201° |
| 2026-04-25 16:30 | -30.97334 | -70.77647 | 37082 ft | 418 kts | 201° |
| 2026-04-25 16:31 | -31.03122 | -70.78213 | 37091 ft | 420 kts | 202° |
| 2026-04-25 16:31 | -31.08951 | -70.78779 | 37089 ft | 418 kts | 201° |
| 2026-04-25 16:32 | -31.14712 | -70.79343 | 37090 ft | 417 kts | 200° |
| 2026-04-25 16:32 | -31.20520 | -70.79914 | 37114 ft | 419 kts | 200° |
| 2026-04-25 16:33 | -31.26337 | -70.80484 | 37117 ft | 416 kts | 200° |
| 2026-04-25 16:33 | -31.32078 | -70.81047 | 37111 ft | 415 kts | 200° |
| 2026-04-25 16:34 | -31.37875 | -70.81618 | 37131 ft | 417 kts | 200° |
| 2026-04-25 16:34 | -31.43643 | -70.82186 | 37176 ft | 418 kts | 199° |
| 2026-04-25 16:35 | -31.49472 | -70.82755 | 37160 ft | 418 kts | 198° |
| 2026-04-25 16:35 | -31.55256 | -70.83325 | 37052 ft | 419 kts | 199° |
| 2026-04-25 16:36 | -31.61070 | -70.83907 | 37117 ft | 422 kts | 199° |
| 2026-04-25 16:36 | -31.66894 | -70.84478 | 36202 ft | 420 kts | 199° |
| 2026-04-25 16:36 | -31.69846 | -70.84781 | 35078 ft | 431 kts | 197° |
| 2026-04-25 16:37 | -31.72878 | -70.85084 | 34089 ft | 438 kts | 196° |
| 2026-04-25 16:37 | -31.75956 | -70.85273 | 33033 ft | 449 kts | 191° |
| 2026-04-25 16:37 | -31.79101 | -70.85179 | 32103 ft | 452 kts | 189° |
| 2026-04-25 16:37 | -31.82253 | -70.85060 | 31188 ft | 453 kts | 189° |
| 2026-04-25 16:38 | -31.85371 | -70.84944 | 30267 ft | 453 kts | 188° |
| 2026-04-25 16:38 | -31.88535 | -70.84828 | 29088 ft | 455 kts | 188° |
| 2026-04-25 16:38 | -31.91709 | -70.84715 | 27874 ft | 456 kts | 187° |
| 2026-04-25 16:38 | -31.94877 | -70.84602 | 26948 ft | 454 kts | 187° |
| 2026-04-25 16:39 | -31.97988 | -70.84492 | 26128 ft | 449 kts | 187° |
| 2026-04-25 16:39 | -32.01100 | -70.84379 | 25394 ft | 443 kts | 187° |
| 2026-04-25 16:39 | -32.04162 | -70.84267 | 24668 ft | 437 kts | 187° |
| 2026-04-25 16:39 | -32.07181 | -70.84157 | 23970 ft | 430 kts | 187° |
| 2026-04-25 16:40 | -32.10167 | -70.84050 | 23227 ft | 426 kts | 186° |
| 2026-04-25 16:40 | -32.13092 | -70.83947 | 22496 ft | 424 kts | 186° |
| 2026-04-25 16:40 | -32.16032 | -70.83841 | 21734 ft | 421 kts | 185° |
| 2026-04-25 16:40 | -32.18967 | -70.83735 | 21043 ft | 419 kts | 185° |
| 2026-04-25 16:41 | -32.21892 | -70.83628 | 20375 ft | 417 kts | 183° |
| 2026-04-25 16:41 | -32.22828 | -70.83593 | 20147 ft | 415 kts | 182° |
| 2026-04-25 16:41 | -32.30230 | -70.83316 | 19054 ft | 380 kts | 181° |
| 2026-04-25 16:42 | -32.32827 | -70.83224 | 18794 ft | 365 kts | 181° |
| 2026-04-25 16:42 | -32.35324 | -70.83134 | 18573 ft | 351 kts | 181° |
| 2026-04-25 16:42 | -32.37723 | -70.83050 | 18214 ft | 341 kts | 181° |
| 2026-04-25 16:42 | -32.40100 | -70.82971 | 17565 ft | 340 kts | 180° |
| 2026-04-25 16:43 | -32.42434 | -70.82889 | 16876 ft | 339 kts | 180° |
| 2026-04-25 16:43 | -32.44798 | -70.82805 | 16237 ft | 340 kts | 180° |
| 2026-04-25 16:43 | -32.47167 | -70.82720 | 15634 ft | 340 kts | 179° |
| 2026-04-25 16:43 | -32.49527 | -70.82634 | 15132 ft | 338 kts | 179° |
| 2026-04-25 16:44 | -32.51873 | -70.82548 | 14659 ft | 336 kts | 179° |
| 2026-04-25 16:44 | -32.54212 | -70.82466 | 14233 ft | 337 kts | 179° |
| 2026-04-25 16:44 | -32.56559 | -70.82382 | 13826 ft | 336 kts | 179° |
| 2026-04-25 16:44 | -32.58885 | -70.82299 | 13429 ft | 332 kts | 178° |
| 2026-04-25 16:45 | -32.61185 | -70.82214 | 13018 ft | 331 kts | 178° |
| 2026-04-25 16:45 | -32.63462 | -70.82135 | 12615 ft | 329 kts | 178° |
| 2026-04-25 16:45 | -32.65738 | -70.82054 | 12286 ft | 324 kts | 178° |
| 2026-04-25 16:45 | -32.67961 | -70.81974 | 12081 ft | 313 kts | 178° |
| 2026-04-25 16:46 | -32.70112 | -70.81896 | 11923 ft | 302 kts | 178° |
| 2026-04-25 16:46 | -32.72145 | -70.81821 | 11783 ft | 290 kts | 178° |
| 2026-04-25 16:46 | -32.74132 | -70.81749 | 11648 ft | 279 kts | 178° |
| 2026-04-25 16:46 | -32.74787 | -70.81726 | 11604 ft | 275 kts | 178° |
| 2026-04-25 16:47 | -32.77889 | -70.81622 | 11169 ft | 266 kts | 178° |
| 2026-04-25 16:47 | -32.79747 | -70.81559 | 10762 ft | 267 kts | 178° |
| 2026-04-25 16:47 | -32.81597 | -70.81493 | 10465 ft | 264 kts | 178° |
| 2026-04-25 16:47 | -32.83413 | -70.81426 | 10102 ft | 264 kts | 178° |
| 2026-04-25 16:48 | -32.85257 | -70.81360 | 9691 ft | 265 kts | 178° |
| 2026-04-25 16:48 | -32.87096 | -70.81294 | 9364 ft | 263 kts | 178° |
| 2026-04-25 16:48 | -32.88928 | -70.81229 | 9023 ft | 261 kts | 178° |
| 2026-04-25 16:48 | -32.90736 | -70.81163 | 8690 ft | 259 kts | 178° |
| 2026-04-25 16:49 | -32.92505 | -70.81097 | 8364 ft | 257 kts | 178° |
| 2026-04-25 16:49 | -32.94290 | -70.81005 | 8052 ft | 257 kts | 177° |
| 2026-04-25 16:49 | -32.96076 | -70.80907 | 7780 ft | 256 kts | 177° |
| 2026-04-25 16:49 | -32.97844 | -70.80809 | 7508 ft | 253 kts | 178° |
| 2026-04-25 16:50 | -32.99607 | -70.80715 | 7200 ft | 253 kts | 178° |
| 2026-04-25 16:50 | -33.01355 | -70.80623 | 6904 ft | 251 kts | 178° |
| 2026-04-25 16:50 | -33.03090 | -70.80523 | 6697 ft | 245 kts | 177° |
| 2026-04-25 16:50 | -33.04742 | -70.80412 | 6571 ft | 235 kts | 177° |
| 2026-04-25 16:51 | -33.06348 | -70.80322 | 6424 ft | 226 kts | 177° |
| 2026-04-25 16:51 | -33.07910 | -70.80238 | 6136 ft | 224 kts | 178° |
| 2026-04-25 16:51 | -33.09481 | -70.80155 | 5876 ft | 226 kts | 177° |
| 2026-04-25 16:51 | -33.09991 | -70.80126 | 5798 ft | 225 kts | 177° |
| 2026-04-25 16:52 | -33.12581 | -70.79991 | 5336 ft | 224 kts | 178° |
| 2026-04-25 16:52 | -33.14140 | -70.79910 | 5080 ft | 223 kts | 178° |
| 2026-04-25 16:52 | -33.15675 | -70.79829 | 4918 ft | 219 kts | 178° |
| 2026-04-25 16:52 | -33.16688 | -70.79775 | 4917 ft | 221 kts | 178° |
| 2026-04-25 16:53 | -33.19743 | -70.79614 | 4936 ft | 220 kts | 178° |
| 2026-04-25 16:53 | -33.21269 | -70.79534 | 4754 ft | 218 kts | 178° |
| 2026-04-25 16:53 | -33.22777 | -70.79454 | 4482 ft | 215 kts | 178° |
| 2026-04-25 16:54 | -33.24245 | -70.79376 | 4209 ft | 213 kts | 178° |
| 2026-04-25 16:54 | -33.25707 | -70.79299 | 3930 ft | 205 kts | 178° |
| 2026-04-25 16:54 | -33.27096 | -70.79225 | 3736 ft | 196 kts | 178° |
| 2026-04-25 16:54 | -33.28450 | -70.79153 | 3468 ft | 193 kts | 178° |
| 2026-04-25 16:55 | -33.29777 | -70.79082 | 3177 ft | 186 kts | 178° |
| 2026-04-25 16:55 | -33.31016 | -70.79017 | 2940 ft | 173 kts | 178° |
| 2026-04-25 16:55 | -33.32172 | -70.78955 | 2734 ft | 156 kts | 179° |
| 2026-04-25 16:55 | -33.33174 | -70.78901 | 2488 ft | 136 kts | 178° |
| 2026-04-25 16:56 | -33.34122 | -70.78851 | 2292 ft | 136 kts | 179° |
| 2026-04-25 16:56 | -33.35068 | -70.78801 | 2113 ft | 136 kts | 179° |
| 2026-04-25 16:56 | -33.35999 | -70.78753 | 1932 ft | 135 kts | 179° |
| 2026-04-25 16:56 | -33.36938 | -70.78708 | 1722 ft | 133 kts | 179° |
| 2026-04-25 16:57 | -33.37861 | -70.78661 | 1587 ft | 129 kts | 178° |
| 2026-04-25 16:57 | -33.38406 | -70.78631 | 1569 ft | 100 kts | 177° |
| 2026-04-25 16:57 | -33.38860 | -70.78606 | 1570 ft | 25 kts | 177° |
| 2026-04-25 16:57 | -33.39007 | -70.78602 | 1570 ft | 22 kts | 181° |
| 2026-04-25 16:58 | -33.39155 | -70.78664 | 1569 ft | 24 kts | 207° |
| 2026-04-25 16:58 | -33.39306 | -70.78764 | 1570 ft | 26 kts | 209° |
| 2026-04-25 16:58 | -33.39463 | -70.78877 | 1570 ft | 27 kts | 219° |
| 2026-04-25 16:58 | -33.39488 | -70.78973 | 1570 ft | 5 kts | 269° |
| 2026-04-25 16:59 | -33.39508 | -70.79011 | 1570 ft | 7 kts | 198° |
| 2026-04-25 16:59 | -33.39556 | -70.79016 | 1570 ft | 1 kts | 184° |
| 2026-04-25 16:59 | -33.39565 | -70.79017 | 1570 ft | 0 kts | 183° |